sensor_id;sensor_type;location;lat;lon;timestamp;temperature;humidity
73833;SHT30;62179;48.444;-4.464;2023-05-13T00:01:33;15.24;76.22
73833;SHT30;62179;48.444;-4.464;2023-05-13T00:04:06;15.27;76.33
73833;SHT30;62179;48.444;-4.464;2023-05-13T00:06:31;15.24;76.36
73833;SHT30;62179;48.444;-4.464;2023-05-13T00:08:58;15.24;76.39
73833;SHT30;62179;48.444;-4.464;2023-05-13T00:11:23;15.23;76.57
73833;SHT30;62179;48.444;-4.464;2023-05-13T00:13:49;15.24;76.35
73833;SHT30;62179;48.444;-4.464;2023-05-13T00:16:14;15.21;76.50
73833;SHT30;62179;48.444;-4.464;2023-05-13T00:18:40;15.24;76.51
73833;SHT30;62179;48.444;-4.464;2023-05-13T00:21:05;15.24;76.42
73833;SHT30;62179;48.444;-4.464;2023-05-13T00:23:31;15.26;76.57
73833;SHT30;62179;48.444;-4.464;2023-05-13T00:25:57;15.24;76.48
73833;SHT30;62179;48.444;-4.464;2023-05-13T00:28:22;15.23;76.43
73833;SHT30;62179;48.444;-4.464;2023-05-13T00:30:48;15.23;76.48
73833;SHT30;62179;48.444;-4.464;2023-05-13T00:33:14;15.23;76.64
73833;SHT30;62179;48.444;-4.464;2023-05-13T00:35:40;15.24;76.65
73833;SHT30;62179;48.444;-4.464;2023-05-13T00:38:06;15.24;76.71
73833;SHT30;62179;48.444;-4.464;2023-05-13T00:40:34;15.26;76.54
73833;SHT30;62179;48.444;-4.464;2023-05-13T00:43:01;15.26;76.64
73833;SHT30;62179;48.444;-4.464;2023-05-13T00:45:26;15.24;76.77
73833;SHT30;62179;48.444;-4.464;2023-05-13T00:47:53;15.26;76.78
73833;SHT30;62179;48.444;-4.464;2023-05-13T00:50:19;15.24;76.82
73833;SHT30;62179;48.444;-4.464;2023-05-13T00:52:45;15.27;76.81
73833;SHT30;62179;48.444;-4.464;2023-05-13T00:55:10;15.27;76.89
73833;SHT30;62179;48.444;-4.464;2023-05-13T00:57:37;15.27;76.76
73833;SHT30;62179;48.444;-4.464;2023-05-13T01:00:04;15.26;76.85
73833;SHT30;62179;48.444;-4.464;2023-05-13T01:13:13;15.27;76.95
73833;SHT30;62179;48.444;-4.464;2023-05-13T01:15:54;15.26;76.85
73833;SHT30;62179;48.444;-4.464;2023-05-13T01:18:28;15.26;76.98
73833;SHT30;62179;48.444;-4.464;2023-05-13T01:20:57;15.24;77.07
73833;SHT30;62179;48.444;-4.464;2023-05-13T01:23:25;15.26;77.05
73833;SHT30;62179;48.444;-4.464;2023-05-13T01:25:50;15.23;77.22
73833;SHT30;62179;48.444;-4.464;2023-05-13T01:28:16;15.23;77.08
73833;SHT30;62179;48.444;-4.464;2023-05-13T01:30:41;15.24;77.02
73833;SHT30;62179;48.444;-4.464;2023-05-13T01:33:07;15.23;77.00
73833;SHT30;62179;48.444;-4.464;2023-05-13T01:35:33;15.21;76.96
73833;SHT30;62179;48.444;-4.464;2023-05-13T01:38:01;15.21;77.08
73833;SHT30;62179;48.444;-4.464;2023-05-13T01:40:30;15.19;77.08
73833;SHT30;62179;48.444;-4.464;2023-05-13T01:42:56;15.20;77.07
73833;SHT30;62179;48.444;-4.464;2023-05-13T01:45:22;15.20;77.05
73833;SHT30;62179;48.444;-4.464;2023-05-13T01:47:47;15.17;76.90
73833;SHT30;62179;48.444;-4.464;2023-05-13T01:50:13;15.17;77.15
73833;SHT30;62179;48.444;-4.464;2023-05-13T01:52:38;15.17;77.18
73833;SHT30;62179;48.444;-4.464;2023-05-13T01:55:04;15.17;77.21
73833;SHT30;62179;48.444;-4.464;2023-05-13T01:57:30;15.17;77.22
73833;SHT30;62179;48.444;-4.464;2023-05-13T01:59:55;15.19;77.26
73833;SHT30;62179;48.444;-4.464;2023-05-13T02:02:20;15.16;77.32
73833;SHT30;62179;48.444;-4.464;2023-05-13T02:04:46;15.17;77.34
73833;SHT30;62179;48.444;-4.464;2023-05-13T02:07:11;15.16;77.40
73833;SHT30;62179;48.444;-4.464;2023-05-13T02:09:37;15.16;77.47
73833;SHT30;62179;48.444;-4.464;2023-05-13T02:12:03;15.16;77.51
73833;SHT30;62179;48.444;-4.464;2023-05-13T02:14:28;15.16;77.50
73833;SHT30;62179;48.444;-4.464;2023-05-13T02:16:53;15.14;77.57
73833;SHT30;62179;48.444;-4.464;2023-05-13T02:19:19;15.14;77.58
73833;SHT30;62179;48.444;-4.464;2023-05-13T02:21:45;15.16;77.37
73833;SHT30;62179;48.444;-4.464;2023-05-13T02:24:10;15.11;77.53
73833;SHT30;62179;48.444;-4.464;2023-05-13T02:26:38;15.10;77.65
73833;SHT30;62179;48.444;-4.464;2023-05-13T02:29:06;15.10;77.59
73833;SHT30;62179;48.444;-4.464;2023-05-13T02:31:31;15.08;77.72
73833;SHT30;62179;48.444;-4.464;2023-05-13T02:33:56;15.08;77.62
73833;SHT30;62179;48.444;-4.464;2023-05-13T02:36:22;15.06;77.67
73833;SHT30;62179;48.444;-4.464;2023-05-13T02:38:47;15.04;77.81
73833;SHT30;62179;48.444;-4.464;2023-05-13T02:41:13;15.02;77.70
73833;SHT30;62179;48.444;-4.464;2023-05-13T02:43:38;15.06;77.76
73833;SHT30;62179;48.444;-4.464;2023-05-13T02:46:04;15.04;77.77
73833;SHT30;62179;48.444;-4.464;2023-05-13T02:48:29;15.03;77.96
73833;SHT30;62179;48.444;-4.464;2023-05-13T02:50:55;15.04;78.11
73833;SHT30;62179;48.444;-4.464;2023-05-13T02:53:20;15.07;78.09
73833;SHT30;62179;48.444;-4.464;2023-05-13T02:55:46;15.04;78.23
73833;SHT30;62179;48.444;-4.464;2023-05-13T02:58:11;15.04;78.30
73833;SHT30;62179;48.444;-4.464;2023-05-13T03:00:37;15.03;78.32
73833;SHT30;62179;48.444;-4.464;2023-05-13T03:03:02;15.03;78.24
73833;SHT30;62179;48.444;-4.464;2023-05-13T03:05:28;15.03;78.28
73833;SHT30;62179;48.444;-4.464;2023-05-13T03:07:53;15.03;78.22
73833;SHT30;62179;48.444;-4.464;2023-05-13T03:10:19;15.03;78.16
73833;SHT30;62179;48.444;-4.464;2023-05-13T03:12:44;15.03;78.33
73833;SHT30;62179;48.444;-4.464;2023-05-13T03:15:10;15.02;78.26
73833;SHT30;62179;48.444;-4.464;2023-05-13T03:17:36;15.02;78.32
73833;SHT30;62179;48.444;-4.464;2023-05-13T03:20:01;15.00;78.43
73833;SHT30;62179;48.444;-4.464;2023-05-13T03:22:26;15.00;78.58
73833;SHT30;62179;48.444;-4.464;2023-05-13T03:24:52;15.00;78.66
73833;SHT30;62179;48.444;-4.464;2023-05-13T03:27:17;15.02;78.60
73833;SHT30;62179;48.444;-4.464;2023-05-13T03:29:43;14.99;78.65
73833;SHT30;62179;48.444;-4.464;2023-05-13T03:32:08;14.99;78.30
73833;SHT30;62179;48.444;-4.464;2023-05-13T03:34:34;14.99;78.40
73833;SHT30;62179;48.444;-4.464;2023-05-13T03:37:01;14.97;78.39
73833;SHT30;62179;48.444;-4.464;2023-05-13T03:39:26;14.97;78.19
73833;SHT30;62179;48.444;-4.464;2023-05-13T03:41:52;14.97;78.46
73833;SHT30;62179;48.444;-4.464;2023-05-13T03:44:17;14.99;78.46
73833;SHT30;62179;48.444;-4.464;2023-05-13T03:46:43;14.99;78.69
73833;SHT30;62179;48.444;-4.464;2023-05-13T03:49:08;14.99;78.78
73833;SHT30;62179;48.444;-4.464;2023-05-13T03:51:34;14.99;79.12
73833;SHT30;62179;48.444;-4.464;2023-05-13T03:54:00;14.97;78.75
73833;SHT30;62179;48.444;-4.464;2023-05-13T03:56:26;14.96;78.99
73833;SHT30;62179;48.444;-4.464;2023-05-13T03:58:52;14.96;79.03
73833;SHT30;62179;48.444;-4.464;2023-05-13T04:01:17;14.93;79.18
73833;SHT30;62179;48.444;-4.464;2023-05-13T04:03:43;14.92;79.16
73833;SHT30;62179;48.444;-4.464;2023-05-13T04:06:10;14.90;79.28
73833;SHT30;62179;48.444;-4.464;2023-05-13T04:08:39;14.87;79.20
73833;SHT30;62179;48.444;-4.464;2023-05-13T04:11:05;14.89;79.20
73833;SHT30;62179;48.444;-4.464;2023-05-13T04:13:33;14.93;79.20
73833;SHT30;62179;48.444;-4.464;2023-05-13T04:15:59;14.89;79.33
73833;SHT30;62179;48.444;-4.464;2023-05-13T04:18:24;14.87;79.24
73833;SHT30;62179;48.444;-4.464;2023-05-13T04:20:50;14.84;79.29
73833;SHT30;62179;48.444;-4.464;2023-05-13T04:23:15;14.84;79.07
73833;SHT30;62179;48.444;-4.464;2023-05-13T04:25:41;14.86;79.25
73833;SHT30;62179;48.444;-4.464;2023-05-13T04:28:06;14.84;79.16
73833;SHT30;62179;48.444;-4.464;2023-05-13T04:30:33;14.84;79.05
73833;SHT30;62179;48.444;-4.464;2023-05-13T04:32:58;14.82;78.96
73833;SHT30;62179;48.444;-4.464;2023-05-13T04:35:24;14.80;79.11
73833;SHT30;62179;48.444;-4.464;2023-05-13T04:37:49;14.79;79.09
73833;SHT30;62179;48.444;-4.464;2023-05-13T04:40:15;14.79;78.96
73833;SHT30;62179;48.444;-4.464;2023-05-13T04:42:40;14.79;78.96
73833;SHT30;62179;48.444;-4.464;2023-05-13T04:45:06;14.79;79.01
73833;SHT30;62179;48.444;-4.464;2023-05-13T04:47:32;14.77;79.04
73833;SHT30;62179;48.444;-4.464;2023-05-13T04:50:00;14.75;79.15
73833;SHT30;62179;48.444;-4.464;2023-05-13T04:52:25;14.75;79.05
73833;SHT30;62179;48.444;-4.464;2023-05-13T04:54:51;14.76;79.13
73833;SHT30;62179;48.444;-4.464;2023-05-13T04:57:16;14.75;79.06
73833;SHT30;62179;48.444;-4.464;2023-05-13T04:59:42;14.76;79.16
73833;SHT30;62179;48.444;-4.464;2023-05-13T05:02:07;14.76;79.03
73833;SHT30;62179;48.444;-4.464;2023-05-13T05:04:32;14.73;79.30
73833;SHT30;62179;48.444;-4.464;2023-05-13T05:06:58;14.75;79.25
73833;SHT30;62179;48.444;-4.464;2023-05-13T05:09:23;14.76;79.21
73833;SHT30;62179;48.444;-4.464;2023-05-13T05:11:49;14.76;79.23
73833;SHT30;62179;48.444;-4.464;2023-05-13T05:14:15;14.76;79.28
73833;SHT30;62179;48.444;-4.464;2023-05-13T05:16:41;14.77;79.29
73833;SHT30;62179;48.444;-4.464;2023-05-13T18:18:43;16.09;73.36
73833;SHT30;62179;48.444;-4.464;2023-05-13T18:21:08;16.08;73.50
73833;SHT30;62179;48.444;-4.464;2023-05-13T18:23:34;16.02;73.23
73833;SHT30;62179;48.444;-4.464;2023-05-13T18:26:00;16.00;73.12
73833;SHT30;62179;48.444;-4.464;2023-05-13T18:28:26;15.96;73.19
73833;SHT30;62179;48.444;-4.464;2023-05-13T18:30:51;15.92;72.98
73833;SHT30;62179;48.444;-4.464;2023-05-13T18:33:18;15.88;73.06
73833;SHT30;62179;48.444;-4.464;2023-05-13T18:35:44;15.86;73.31
73833;SHT30;62179;48.444;-4.464;2023-05-13T18:38:10;15.85;73.09
73833;SHT30;62179;48.444;-4.464;2023-05-13T18:40:35;15.82;73.23
73833;SHT30;62179;48.444;-4.464;2023-05-13T18:43:01;15.82;73.01
73833;SHT30;62179;48.444;-4.464;2023-05-13T18:45:26;15.79;73.17
73833;SHT30;62179;48.444;-4.464;2023-05-13T18:47:51;15.75;73.06
73833;SHT30;62179;48.444;-4.464;2023-05-13T18:50:17;15.71;73.29
73833;SHT30;62179;48.444;-4.464;2023-05-13T18:52:42;15.63;73.37
73833;SHT30;62179;48.444;-4.464;2023-05-13T18:55:08;15.61;73.43
73833;SHT30;62179;48.444;-4.464;2023-05-13T18:57:35;15.55;73.52
73833;SHT30;62179;48.444;-4.464;2023-05-13T19:00:00;15.55;73.49
73833;SHT30;62179;48.444;-4.464;2023-05-13T19:02:26;15.48;73.49
73833;SHT30;62179;48.444;-4.464;2023-05-13T19:04:51;15.44;73.56
73833;SHT30;62179;48.444;-4.464;2023-05-13T19:07:17;15.40;73.71
73833;SHT30;62179;48.444;-4.464;2023-05-13T19:09:42;15.38;73.73
73833;SHT30;62179;48.444;-4.464;2023-05-13T19:12:08;15.33;73.92
73833;SHT30;62179;48.444;-4.464;2023-05-13T19:14:33;15.33;74.00
73833;SHT30;62179;48.444;-4.464;2023-05-13T19:16:59;15.26;73.94
73833;SHT30;62179;48.444;-4.464;2023-05-13T19:19:25;15.23;74.02
73833;SHT30;62179;48.444;-4.464;2023-05-13T19:21:54;15.17;74.16
73833;SHT30;62179;48.444;-4.464;2023-05-13T19:24:20;15.14;74.21
73833;SHT30;62179;48.444;-4.464;2023-05-13T19:26:45;15.07;74.30
73833;SHT30;62179;48.444;-4.464;2023-05-13T19:29:11;15.04;74.33
73833;SHT30;62179;48.444;-4.464;2023-05-13T19:31:36;15.00;74.43
73833;SHT30;62179;48.444;-4.464;2023-05-13T19:34:02;14.94;74.45
73833;SHT30;62179;48.444;-4.464;2023-05-13T19:36:27;14.92;74.53
73833;SHT30;62179;48.444;-4.464;2023-05-13T19:38:53;14.87;74.67
73833;SHT30;62179;48.444;-4.464;2023-05-13T19:41:19;14.83;74.82
73833;SHT30;62179;48.444;-4.464;2023-05-13T19:43:45;14.80;74.80
73833;SHT30;62179;48.444;-4.464;2023-05-13T19:46:14;14.77;74.78
73833;SHT30;62179;48.444;-4.464;2023-05-13T19:48:39;14.75;74.87
73833;SHT30;62179;48.444;-4.464;2023-05-13T19:51:05;14.71;74.98
73833;SHT30;62179;48.444;-4.464;2023-05-13T19:53:30;14.66;75.06
73833;SHT30;62179;48.444;-4.464;2023-05-13T19:55:58;14.63;75.23
73833;SHT30;62179;48.444;-4.464;2023-05-13T19:58:47;14.59;75.21
73833;SHT30;62179;48.444;-4.464;2023-05-13T20:01:47;14.55;75.23
73833;SHT30;62179;48.444;-4.464;2023-05-13T20:25:42;14.31;76.11
73833;SHT30;62179;48.444;-4.464;2023-05-13T20:28:09;14.29;76.26
73833;SHT30;62179;48.444;-4.464;2023-05-13T20:30:35;14.26;76.19
73833;SHT30;62179;48.444;-4.464;2023-05-13T20:33:00;14.25;76.31
73833;SHT30;62179;48.444;-4.464;2023-05-13T20:35:32;14.26;76.55
73833;SHT30;62179;48.444;-4.464;2023-05-13T20:38:01;14.28;76.51
73833;SHT30;62179;48.444;-4.464;2023-05-13T20:40:38;14.25;76.65
73833;SHT30;62179;48.444;-4.464;2023-05-13T20:43:03;14.25;76.81
73833;SHT30;62179;48.444;-4.464;2023-05-13T20:45:29;14.22;76.94
73833;SHT30;62179;48.444;-4.464;2023-05-13T20:47:54;14.21;76.81
73833;SHT30;62179;48.444;-4.464;2023-05-13T20:50:27;14.21;76.75
73833;SHT30;62179;48.444;-4.464;2023-05-13T20:52:57;14.21;76.88
73833;SHT30;62179;48.444;-4.464;2023-05-13T20:55:23;14.21;76.76
73833;SHT30;62179;48.444;-4.464;2023-05-13T20:57:49;14.22;76.82
73833;SHT30;62179;48.444;-4.464;2023-05-13T21:00:15;14.20;76.74
73833;SHT30;62179;48.444;-4.464;2023-05-13T21:02:41;14.22;76.89
73833;SHT30;62179;48.444;-4.464;2023-05-13T21:05:07;14.21;76.87
73833;SHT30;62179;48.444;-4.464;2023-05-13T21:07:33;14.20;76.87
73833;SHT30;62179;48.444;-4.464;2023-05-13T21:10:00;14.17;77.00
73833;SHT30;62179;48.444;-4.464;2023-05-13T21:12:29;14.15;77.20
73833;SHT30;62179;48.444;-4.464;2023-05-13T21:14:55;14.15;77.08
73833;SHT30;62179;48.444;-4.464;2023-05-13T21:17:23;14.13;77.19
73833;SHT30;62179;48.444;-4.464;2023-05-13T21:19:51;14.15;77.19
73833;SHT30;62179;48.444;-4.464;2023-05-13T21:22:16;14.14;77.29
73833;SHT30;62179;48.444;-4.464;2023-05-13T21:24:45;14.13;77.22
